createdAt,value
2022-10-08T00:02:09.540Z,7.30
2022-10-08T00:04:38.035Z,6.63
2022-10-08T00:07:07.600Z,6.87
2022-10-08T00:09:37.463Z,8.50
2022-10-08T00:12:06.129Z,6.37
2022-10-08T00:14:34.582Z,6.43
2022-10-08T00:17:03.055Z,6.20
2022-10-08T00:19:31.574Z,5.67
2022-10-08T00:22:00.036Z,7.43
2022-10-08T00:24:28.731Z,6.03
2022-10-08T00:27:00.352Z,6.03
2022-10-08T00:29:28.879Z,7.03
2022-10-08T00:31:57.351Z,5.60
2022-10-08T00:34:26.059Z,9.20
2022-10-08T00:36:56.515Z,8.27
2022-10-08T00:39:26.027Z,8.87
2022-10-08T00:41:56.031Z,8.10
2022-10-08T00:44:55.215Z,6.27
2022-10-08T00:47:40.731Z,6.20
2022-10-08T00:50:13.459Z,7.27
2022-10-08T00:52:45.295Z,6.20
2022-10-08T00:55:16.687Z,8.20
2022-10-08T00:57:45.311Z,7.20
2022-10-08T01:00:18.187Z,6.97
2022-10-08T01:02:46.916Z,5.50
2022-10-08T01:05:19.651Z,5.90
2022-10-08T01:07:52.395Z,5.97
2022-10-08T01:10:28.823Z,6.23
2022-10-08T01:13:11.250Z,6.00
2022-10-08T01:15:46.064Z,5.50
2022-10-08T01:18:20.635Z,5.53
2022-10-08T01:20:55.588Z,7.63
2022-10-08T01:24:00.441Z,6.63
2022-10-08T01:26:46.348Z,6.40
2022-10-08T01:29:19.706Z,5.30
2022-10-08T01:31:49.707Z,6.17
2022-10-08T01:34:21.694Z,6.53
2022-10-08T01:36:52.087Z,5.60
2022-10-08T01:39:22.530Z,7.67
2022-10-08T01:41:52.843Z,7.80
2022-10-08T01:44:25.336Z,8.80
2022-10-08T01:46:56.496Z,5.87
2022-10-08T01:49:26.730Z,6.57
2022-10-08T01:51:57.203Z,6.20
2022-10-08T01:54:27.821Z,6.33
2022-10-08T01:56:58.118Z,5.70
2022-10-08T01:59:31.211Z,6.37
2022-10-08T02:02:05.026Z,5.40
2022-10-08T02:04:37.587Z,5.37
2022-10-08T02:07:09.353Z,5.37
2022-10-08T02:09:39.938Z,4.83
2022-10-08T02:12:09.159Z,5.60
2022-10-08T02:14:40.555Z,5.00
2022-10-08T02:17:17.787Z,4.83
2022-10-08T02:19:54.543Z,4.80
2022-10-08T02:22:26.755Z,4.47
2022-10-08T02:25:00.175Z,4.40
2022-10-08T02:27:33.317Z,5.20
2022-10-08T02:30:09.659Z,4.60
2022-10-08T02:32:42.048Z,4.70
2022-10-08T02:35:15.081Z,4.37
2022-10-08T02:37:47.059Z,4.20
2022-10-08T02:40:17.687Z,4.17
2022-10-08T02:42:52.591Z,4.77
2022-10-08T02:45:25.159Z,4.73
2022-10-08T02:47:56.882Z,4.60
2022-10-08T02:50:27.102Z,4.20
2022-10-08T02:52:56.127Z,5.10
2022-10-08T02:55:31.464Z,4.43
2022-10-08T02:58:03.028Z,4.50
2022-10-08T03:00:36.115Z,4.73
2022-10-08T03:03:16.314Z,4.57
2022-10-08T03:05:45.477Z,4.50
2022-10-08T03:08:15.432Z,4.70
2022-10-08T03:10:45.292Z,4.63
2022-10-08T03:13:14.325Z,4.70
2022-10-08T03:15:44.694Z,4.47
2022-10-08T03:18:13.799Z,4.37
2022-10-08T03:20:48.119Z,4.47
2022-10-08T03:23:19.094Z,4.83
2022-10-08T03:25:47.580Z,5.13
2022-10-08T03:28:16.045Z,4.63
2022-10-08T03:30:47.557Z,4.33
2022-10-08T03:33:16.677Z,4.97
2022-10-08T03:35:46.557Z,4.20
2022-10-08T03:38:16.533Z,4.60
2022-10-08T03:40:45.632Z,4.53
2022-10-08T03:43:14.035Z,4.60
2022-10-08T03:45:52.131Z,4.23
2022-10-08T03:48:21.508Z,4.70
2022-10-08T03:50:53.914Z,4.20
2022-10-08T03:53:22.641Z,4.40
2022-10-08T03:55:51.345Z,4.87
2022-10-08T03:58:19.964Z,4.97
2022-10-08T04:00:59.061Z,4.50
2022-10-08T04:03:28.298Z,5.23
2022-10-08T04:05:57.030Z,4.80
2022-10-08T04:08:25.848Z,4.80
2022-10-08T04:10:54.457Z,5.23
2022-10-08T04:13:23.389Z,5.17
2022-10-08T04:15:51.863Z,4.90
2022-10-08T04:18:21.708Z,4.53
2022-10-08T04:20:50.182Z,4.90
2022-10-08T04:23:18.579Z,4.90
2022-10-08T04:25:51.899Z,4.53
2022-10-08T04:28:20.964Z,4.60
2022-10-08T04:30:59.911Z,4.97
2022-10-08T04:33:31.236Z,4.90
2022-10-08T04:36:00.469Z,5.23
2022-10-08T04:38:29.516Z,6.17
2022-10-08T04:41:05.463Z,6.67
2022-10-08T04:43:34.827Z,6.97
2022-10-08T04:46:03.563Z,4.40
2022-10-08T04:48:33.547Z,5.73
2022-10-08T04:51:06.860Z,5.33
2022-10-08T04:53:37.989Z,5.80
2022-10-08T04:56:12.003Z,5.50
2022-10-08T04:58:40.569Z,7.37
2022-10-08T05:01:10.796Z,5.67
2022-10-08T05:03:42.039Z,6.27
2022-10-08T05:06:11.160Z,5.10
2022-10-08T05:08:39.723Z,6.17
2022-10-08T05:11:08.945Z,4.77
2022-10-08T05:13:37.776Z,6.03
2022-10-08T05:16:07.051Z,5.03
2022-10-08T05:18:37.089Z,5.97
2022-10-08T05:21:08.743Z,6.53
2022-10-08T05:23:38.035Z,7.37
2022-10-08T05:26:14.064Z,9.63
2022-10-08T05:28:43.077Z,6.80
2022-10-08T05:31:11.629Z,6.80
2022-10-08T05:33:40.275Z,7.17
2022-10-08T05:36:16.455Z,7.40
2022-10-08T05:38:44.978Z,7.97
2022-10-08T05:41:15.041Z,6.50
2022-10-08T05:43:43.855Z,7.67
2022-10-08T05:46:12.963Z,6.00
2022-10-08T05:48:42.035Z,6.63
2022-10-08T05:51:14.227Z,6.17
2022-10-08T05:53:44.365Z,8.43
2022-10-08T05:56:14.011Z,7.07
2022-10-08T05:58:43.290Z,7.53
2022-10-08T06:01:14.892Z,6.73
2022-10-08T06:03:43.654Z,6.10
2022-10-08T06:06:13.688Z,6.60
2022-10-08T06:08:42.407Z,8.13
2022-10-08T06:11:10.914Z,6.43
2022-10-08T06:13:39.449Z,7.03
2022-10-08T06:16:10.000Z,8.10
2022-10-08T06:18:40.350Z,22.33
2022-10-08T06:21:10.174Z,25.13
2022-10-08T06:23:40.841Z,15.67
2022-10-08T06:26:10.694Z,7.90
2022-10-08T06:28:40.419Z,7.67
2022-10-08T06:31:09.994Z,7.13
2022-10-08T06:33:39.148Z,6.80
2022-10-08T06:36:08.954Z,6.37
2022-10-08T06:38:37.370Z,11.33
2022-10-08T06:41:07.331Z,8.80
2022-10-08T06:43:36.304Z,6.73
2022-10-08T06:46:05.685Z,6.40
2022-10-08T06:48:34.379Z,7.10
2022-10-08T06:51:04.530Z,7.57
2022-10-08T06:53:33.267Z,8.10
2022-10-08T06:56:04.594Z,8.50
2022-10-08T06:58:36.201Z,33.57
2022-10-08T07:01:06.594Z,11.90
2022-10-08T07:03:35.573Z,10.73
2022-10-08T07:06:05.393Z,7.63
2022-10-08T07:08:34.055Z,7.83
2022-10-08T07:11:06.065Z,7.53
2022-10-08T07:13:36.634Z,7.10
2022-10-08T07:16:07.381Z,8.73
2022-10-08T07:18:36.934Z,7.37
2022-10-08T07:21:05.962Z,8.57
2022-10-08T07:23:34.752Z,6.60
2022-10-08T07:26:05.444Z,6.80
2022-10-08T07:28:37.573Z,9.53
2022-10-08T07:31:06.596Z,6.23
2022-10-08T07:33:35.220Z,6.63
2022-10-08T07:36:08.474Z,6.70
2022-10-08T07:38:36.902Z,11.30
2022-10-08T07:41:05.622Z,6.80
2022-10-08T07:43:34.070Z,8.63
2022-10-08T07:46:04.065Z,7.17
2022-10-08T07:48:34.241Z,7.97
2022-10-08T07:51:10.803Z,8.13
2022-10-08T07:53:39.911Z,8.00
2022-10-08T07:56:09.953Z,9.03
2022-10-08T07:58:38.749Z,7.00
2022-10-08T08:01:11.006Z,7.17
2022-10-08T08:03:39.591Z,8.63
2022-10-08T08:06:10.329Z,6.20
2022-10-08T08:08:39.981Z,8.13
2022-10-08T08:11:09.683Z,6.80
2022-10-08T08:13:41.106Z,6.37
2022-10-08T08:16:12.769Z,6.17
2022-10-08T08:18:43.355Z,6.23
2022-10-08T08:21:13.699Z,5.70
2022-10-08T08:23:43.908Z,7.47
2022-10-08T08:26:14.860Z,6.00
2022-10-08T08:28:43.907Z,6.83
2022-10-08T08:31:16.683Z,5.97
2022-10-08T08:33:50.874Z,7.83
2022-10-08T08:36:19.574Z,5.97
2022-10-08T08:38:48.011Z,6.97
2022-10-08T08:41:24.763Z,5.87
2022-10-08T08:43:59.038Z,8.83
2022-10-08T08:46:30.532Z,9.30
2022-10-08T08:49:01.107Z,9.00
2022-10-08T08:51:29.515Z,7.60
2022-10-08T08:53:58.339Z,7.33
2022-10-08T08:56:26.759Z,6.60
2022-10-08T08:58:59.471Z,7.97
2022-10-08T09:01:33.537Z,6.43
2022-10-08T09:04:06.603Z,6.53
2022-10-08T09:06:35.671Z,7.03
2022-10-08T09:09:08.901Z,7.70
2022-10-08T09:11:39.474Z,6.10
2022-10-08T09:14:20.676Z,5.97
2022-10-08T09:16:50.700Z,5.97
2022-10-08T09:19:19.255Z,6.73
2022-10-08T09:21:47.718Z,6.07
2022-10-08T09:24:16.668Z,7.23
2022-10-08T09:26:45.185Z,7.53
2022-10-08T09:29:32.397Z,10.87
2022-10-08T09:32:02.304Z,10.13
2022-10-08T09:34:30.762Z,8.13
2022-10-08T09:37:05.125Z,5.93
2022-10-08T09:39:34.941Z,6.17
2022-10-08T09:42:15.100Z,7.80
2022-10-08T09:44:44.541Z,5.67
2022-10-08T09:47:15.438Z,6.50
2022-10-08T09:49:44.924Z,6.83
2022-10-08T09:52:17.552Z,5.63
2022-10-08T09:54:48.930Z,6.40
2022-10-08T09:57:18.742Z,5.57
2022-10-08T09:59:52.981Z,6.30
2022-10-08T10:02:31.515Z,14.83
2022-10-08T10:05:01.096Z,6.87
2022-10-08T10:07:40.980Z,5.20
2022-10-08T10:10:19.451Z,7.70
2022-10-08T10:12:50.286Z,5.67
2022-10-08T10:15:22.076Z,6.53
2022-10-08T10:17:53.499Z,5.30
2022-10-08T10:20:24.906Z,5.60
2022-10-08T10:22:57.310Z,4.90
2022-10-08T10:25:32.015Z,5.13
2022-10-08T10:28:02.991Z,4.53
2022-10-08T10:30:36.036Z,5.00
2022-10-08T10:33:10.785Z,5.63
2022-10-08T10:35:45.727Z,5.00
2022-10-08T10:38:17.450Z,4.90
2022-10-08T10:40:48.379Z,7.00
2022-10-08T10:43:29.078Z,9.07
2022-10-08T10:46:01.702Z,6.23
2022-10-08T10:48:32.073Z,6.63
2022-10-08T10:51:19.287Z,6.37
2022-10-08T10:53:57.650Z,6.17
2022-10-08T10:56:28.056Z,5.53
2022-10-08T10:59:18.180Z,5.30
2022-10-08T11:01:51.602Z,5.37
2022-10-08T11:04:27.789Z,5.80
2022-10-08T11:07:02.994Z,6.43
2022-10-08T11:09:39.047Z,5.23
2022-10-08T11:12:27.162Z,5.40
2022-10-08T11:15:02.010Z,7.60
2022-10-08T11:17:40.364Z,6.20
2022-10-08T11:20:27.176Z,5.03
2022-10-08T11:23:00.582Z,4.83
2022-10-08T11:25:44.856Z,7.10
2022-10-08T11:28:30.253Z,5.83
2022-10-08T11:31:07.474Z,4.80
2022-10-08T11:33:36.720Z,6.40
2022-10-08T11:36:20.825Z,5.07
2022-10-08T11:38:52.178Z,5.07
2022-10-08T11:41:25.300Z,5.53
2022-10-08T11:43:55.839Z,5.23
2022-10-08T11:46:30.112Z,5.80
2022-10-08T11:49:00.779Z,5.53
2022-10-08T11:51:36.120Z,5.27
2022-10-08T11:54:13.902Z,5.90
2022-10-08T11:56:44.726Z,5.77
2022-10-08T11:59:29.960Z,5.17
2022-10-08T12:02:00.090Z,5.43
2022-10-08T12:04:31.241Z,6.13
2022-10-08T12:07:07.926Z,6.03
2022-10-08T12:10:09.263Z,5.93
2022-10-08T12:13:01.981Z,4.83
2022-10-08T12:16:09.995Z,5.17
2022-10-08T12:18:47.472Z,5.50
2022-10-08T12:21:52.649Z,5.47
2022-10-08T12:24:54.337Z,5.10
2022-10-08T12:27:29.534Z,5.67
2022-10-08T12:30:00.554Z,7.13
2022-10-08T12:32:30.639Z,5.57
2022-10-08T12:34:59.128Z,7.53
2022-10-08T12:37:44.964Z,6.00
2022-10-08T12:40:27.374Z,6.17
2022-10-08T12:43:06.544Z,5.30
2022-10-08T12:45:43.545Z,9.60
2022-10-08T12:48:16.974Z,5.73
2022-10-08T12:50:53.022Z,6.97
2022-10-08T12:53:21.640Z,8.73
2022-10-08T12:55:52.505Z,8.43
2022-10-08T12:58:24.930Z,5.23
2022-10-08T13:00:55.459Z,6.30
2022-10-08T13:03:25.434Z,6.57
2022-10-08T13:05:55.337Z,7.00
2022-10-08T13:08:35.166Z,7.83
2022-10-08T13:11:05.677Z,7.83
2022-10-08T13:13:44.944Z,7.00
2022-10-08T13:16:15.101Z,5.77
2022-10-08T13:18:45.729Z,8.03
2022-10-08T13:21:37.022Z,7.27
2022-10-08T13:24:46.932Z,7.00
2022-10-08T13:27:26.374Z,5.47
2022-10-08T13:29:56.695Z,6.33
2022-10-08T13:32:26.695Z,5.60
2022-10-08T13:34:56.616Z,7.50
2022-10-08T13:37:33.851Z,7.17
2022-10-08T13:40:04.797Z,6.97
2022-10-08T13:42:35.759Z,12.30
2022-10-08T13:45:13.539Z,8.93
2022-10-08T13:47:41.936Z,7.33
2022-10-08T13:50:10.779Z,6.37
2022-10-08T13:52:44.387Z,5.70
2022-10-08T13:55:22.057Z,6.13
2022-10-08T13:57:50.758Z,5.70
2022-10-08T14:00:21.323Z,6.43
2022-10-08T14:02:51.701Z,5.83
2022-10-08T14:05:20.325Z,6.80
2022-10-08T14:07:50.342Z,5.17
2022-10-08T14:10:19.355Z,6.30
2022-10-08T14:12:47.858Z,7.13
2022-10-08T14:15:17.522Z,9.70
2022-10-08T14:17:49.487Z,6.70
2022-10-08T14:20:18.252Z,6.77
2022-10-08T14:22:46.806Z,6.37
2022-10-08T14:25:18.180Z,7.23
2022-10-08T14:27:47.250Z,6.67
2022-10-08T14:30:16.998Z,8.37
2022-10-08T14:32:46.974Z,6.50
2022-10-08T14:35:15.442Z,8.53
2022-10-08T14:37:43.931Z,6.63
2022-10-08T14:40:16.775Z,7.90
2022-10-08T14:42:45.408Z,8.53
2022-10-08T14:45:14.140Z,8.83
2022-10-08T14:47:42.543Z,6.43
2022-10-08T14:50:13.554Z,6.40
2022-10-08T14:52:44.525Z,6.83
2022-10-08T14:55:14.220Z,8.87
2022-10-08T14:57:42.733Z,7.63
2022-10-08T15:00:13.243Z,7.20
2022-10-08T15:02:41.782Z,6.97
2022-10-08T15:05:10.501Z,7.13
2022-10-08T15:07:40.292Z,7.30
2022-10-08T15:10:09.907Z,6.83
2022-10-08T15:12:38.481Z,7.83
2022-10-08T15:15:07.900Z,7.07
2022-10-08T15:17:36.325Z,7.27
2022-10-08T15:20:05.427Z,8.13
2022-10-08T15:22:33.913Z,8.83
2022-10-08T15:25:03.864Z,6.80
2022-10-08T15:27:32.347Z,7.40
2022-10-08T15:30:00.770Z,7.73
2022-10-08T15:32:30.649Z,8.13
2022-10-08T15:34:59.262Z,7.90
2022-10-08T15:37:27.687Z,7.60
2022-10-08T15:39:56.137Z,8.90
2022-10-08T15:42:26.131Z,7.67
2022-10-08T15:44:55.207Z,7.40
2022-10-08T15:47:23.671Z,7.17
2022-10-08T15:49:52.091Z,6.83
2022-10-08T15:52:22.311Z,8.87
2022-10-08T15:54:50.790Z,8.77
2022-10-08T15:57:19.612Z,7.27
2022-10-08T15:59:49.518Z,9.43
2022-10-08T16:02:18.657Z,9.43
2022-10-08T16:04:48.191Z,7.03
2022-10-08T16:07:16.969Z,9.60
2022-10-08T16:09:45.407Z,10.13
2022-10-08T16:12:13.783Z,7.00
2022-10-08T16:14:42.165Z,7.03
2022-10-08T16:17:12.033Z,8.97
2022-10-08T16:19:40.547Z,7.27
2022-10-08T16:22:08.988Z,10.63
2022-10-08T16:24:37.510Z,10.77
2022-10-08T16:27:05.971Z,9.03
2022-10-08T16:29:34.382Z,8.23
2022-10-08T16:32:03.039Z,7.47
2022-10-08T16:34:33.126Z,7.23
2022-10-08T16:37:01.965Z,8.27
2022-10-08T16:39:30.392Z,8.77
2022-10-08T16:41:58.824Z,9.53
2022-10-08T16:44:27.328Z,8.13
2022-10-08T16:46:55.786Z,8.10
2022-10-08T16:49:26.431Z,7.40
2022-10-08T16:51:59.142Z,6.80
2022-10-08T16:54:28.362Z,6.97
2022-10-08T16:56:56.978Z,7.93
2022-10-08T16:59:27.274Z,8.40
2022-10-08T17:01:57.396Z,6.60
2022-10-08T17:04:27.731Z,7.47
2022-10-08T17:06:57.950Z,7.53
2022-10-08T17:09:26.400Z,7.90
2022-10-08T17:11:54.810Z,7.43
2022-10-08T17:14:23.284Z,7.80
2022-10-08T17:16:51.795Z,8.03
2022-10-08T17:19:20.665Z,23.00
2022-10-08T17:21:49.074Z,21.00
2022-10-08T17:24:18.836Z,19.27
2022-10-08T17:26:47.352Z,22.40
2022-10-08T17:29:15.854Z,46.73
2022-10-08T17:31:44.612Z,48.73
2022-10-08T17:34:13.227Z,58.47
2022-10-08T17:36:44.136Z,84.10
2022-10-08T17:39:14.864Z,44.00
2022-10-08T17:41:45.085Z,17.50
2022-10-08T17:44:14.039Z,15.67
2022-10-08T17:46:45.683Z,11.57
2022-10-08T17:49:14.768Z,10.00
2022-10-08T17:51:43.260Z,10.57
2022-10-08T17:54:13.572Z,14.37
2022-10-08T17:56:42.193Z,15.40
2022-10-08T17:59:15.137Z,12.00
2022-10-08T18:01:45.322Z,11.17
2022-10-08T18:04:15.543Z,10.40
2022-10-08T18:06:46.103Z,10.00
2022-10-08T18:09:16.252Z,9.73
2022-10-08T18:11:46.454Z,10.57
2022-10-08T18:14:17.340Z,10.17
2022-10-08T18:16:48.416Z,10.97
2022-10-08T18:19:18.233Z,11.87
2022-10-08T18:21:47.084Z,17.20
2022-10-08T18:24:16.090Z,16.47
2022-10-08T18:26:45.078Z,13.90
2022-10-08T18:29:15.621Z,14.23
2022-10-08T18:31:46.541Z,15.93
2022-10-08T18:34:17.244Z,13.10
2022-10-08T18:36:46.122Z,12.70
2022-10-08T18:39:17.095Z,13.07
2022-10-08T18:41:46.865Z,13.67
2022-10-08T18:44:18.892Z,13.50
2022-10-08T18:46:47.615Z,12.47
2022-10-08T18:49:17.991Z,13.90
2022-10-08T18:51:46.619Z,12.50
2022-10-08T18:54:15.208Z,13.10
2022-10-08T18:56:43.675Z,12.33
2022-10-08T18:59:13.730Z,12.60
2022-10-08T19:01:45.188Z,12.03
2022-10-08T19:04:15.061Z,11.93
2022-10-08T19:06:44.900Z,10.33
2022-10-08T19:09:13.693Z,9.67
2022-10-08T19:11:45.198Z,9.43
2022-10-08T19:14:15.907Z,9.50
2022-10-08T19:16:45.984Z,10.87
2022-10-08T19:19:16.201Z,17.17
2022-10-08T19:21:45.323Z,48.03
2022-10-08T19:24:17.240Z,33.97
2022-10-08T19:26:46.828Z,24.67
2022-10-08T19:29:17.139Z,19.97
2022-10-08T19:31:48.589Z,15.23
2022-10-08T19:34:18.538Z,13.57
2022-10-08T19:36:47.447Z,12.77
2022-10-08T19:39:20.429Z,11.67
2022-10-08T19:41:49.508Z,11.40
2022-10-08T19:44:18.318Z,11.40
2022-10-08T19:46:48.863Z,12.37
2022-10-08T19:49:18.151Z,10.53
2022-10-08T19:51:46.657Z,11.63
2022-10-08T19:54:17.366Z,10.90
2022-10-08T19:56:45.891Z,12.30
2022-10-08T19:59:14.718Z,11.07
2022-10-08T20:01:44.752Z,9.63
2022-10-08T20:04:16.722Z,11.13
2022-10-08T20:06:45.253Z,12.07
2022-10-08T20:09:14.783Z,12.37
2022-10-08T20:11:44.015Z,10.00
2022-10-08T20:14:12.918Z,10.23
2022-10-08T20:16:42.950Z,12.23
2022-10-08T20:19:17.139Z,11.83
2022-10-08T20:21:46.080Z,9.90
2022-10-08T20:24:14.838Z,10.00
2022-10-08T20:26:44.387Z,11.47
2022-10-08T20:29:14.697Z,10.30
2022-10-08T20:31:44.132Z,11.67
2022-10-08T20:34:17.468Z,13.30
2022-10-08T20:36:46.698Z,12.43
2022-10-08T20:39:16.686Z,12.80
2022-10-08T20:41:45.664Z,14.30
2022-10-08T20:44:14.268Z,15.07
2022-10-08T20:46:42.877Z,13.27
2022-10-08T20:49:12.318Z,12.93
2022-10-08T20:51:43.296Z,13.03
2022-10-08T20:54:13.588Z,18.93
2022-10-08T20:56:42.854Z,19.73
2022-10-08T20:59:11.677Z,19.33
2022-10-08T21:01:40.857Z,23.90
2022-10-08T21:04:09.755Z,18.73
2022-10-08T21:06:40.277Z,23.07
2022-10-08T21:09:10.215Z,20.80
2022-10-08T21:11:39.442Z,21.10
2022-10-08T21:14:09.236Z,16.40
2022-10-08T21:16:39.609Z,18.10
2022-10-08T21:19:12.321Z,15.23
2022-10-08T21:21:41.483Z,20.50
2022-10-08T21:24:11.507Z,22.97
2022-10-08T21:26:41.899Z,44.40
2022-10-08T21:29:12.686Z,53.17
2022-10-08T21:31:42.368Z,41.83
2022-10-08T21:34:12.593Z,24.77
2022-10-08T21:36:42.022Z,26.13
2022-10-08T21:39:16.296Z,29.30
2022-10-08T21:41:45.031Z,22.87
2022-10-08T21:44:13.660Z,16.87
2022-10-08T21:46:43.501Z,19.33
2022-10-08T21:49:14.058Z,14.67
2022-10-08T21:51:42.829Z,13.73
2022-10-08T21:54:13.239Z,15.50
2022-10-08T21:56:42.966Z,16.83
2022-10-08T21:59:13.887Z,17.37
2022-10-08T22:01:43.849Z,17.03
2022-10-08T22:04:14.662Z,13.30
2022-10-08T22:06:45.063Z,15.07
2022-10-08T22:09:16.454Z,14.30
2022-10-08T22:11:45.053Z,13.93
2022-10-08T22:14:13.560Z,14.27
2022-10-08T22:16:43.504Z,14.93
2022-10-08T22:19:12.374Z,14.47
2022-10-08T22:21:40.990Z,14.23
2022-10-08T22:24:09.844Z,12.73
2022-10-08T22:26:41.727Z,14.30
2022-10-08T22:29:10.484Z,17.87
2022-10-08T22:31:39.585Z,15.17
2022-10-08T22:34:08.120Z,16.10
2022-10-08T22:36:40.024Z,16.20
2022-10-08T22:39:08.973Z,18.50
2022-10-08T22:41:39.155Z,15.23
2022-10-08T22:44:07.660Z,14.73
2022-10-08T22:46:37.669Z,13.03
2022-10-08T22:49:08.287Z,16.30
2022-10-08T22:51:37.790Z,13.13
2022-10-08T22:54:06.539Z,12.40
2022-10-08T22:56:35.136Z,13.80
2022-10-08T22:59:05.227Z,12.50
2022-10-08T23:01:33.762Z,13.40
2022-10-08T23:04:02.187Z,12.60
2022-10-08T23:06:32.592Z,11.40
2022-10-08T23:09:02.086Z,11.93
2022-10-08T23:11:31.634Z,10.20
2022-10-08T23:14:01.459Z,13.20
2022-10-08T23:16:33.660Z,15.03
2022-10-08T23:19:04.126Z,13.07
2022-10-08T23:21:32.848Z,13.97
2022-10-08T23:24:01.308Z,13.17
2022-10-08T23:26:30.059Z,12.60
2022-10-08T23:29:00.522Z,12.50
2022-10-08T23:31:32.334Z,11.57
2022-10-08T23:34:01.379Z,14.77
2022-10-08T23:36:30.880Z,14.73
2022-10-08T23:38:59.716Z,12.17
2022-10-08T23:41:29.028Z,15.07
2022-10-08T23:43:58.466Z,14.07
2022-10-08T23:46:28.349Z,12.03
2022-10-08T23:48:58.753Z,12.60
2022-10-08T23:51:29.079Z,11.40
2022-10-08T23:53:57.579Z,12.43
2022-10-08T23:56:26.205Z,13.53
2022-10-08T23:58:54.677Z,10.97
